Time;durP1;ratioP1;P1;durP2;ratioP2;P2;SDS_P1;SDS_P2;PMS_P1;PMS_P2;Temp;Humidity;BMP_temperature;BMP_pressure;BME280_temperature;BME280_humidity;BME280_pressure;Samples;Min_cycle;Max_cycle;Signal;HPM_P1;HPM_P2
2021/10/07 00:00:16;;;;;;;27.50;14.27;;;14.10;99.90;;;;;;4993115;28;20038;-67
2021/10/07 00:02:42;;;;;;;28.23;14.70;;;14.00;99.90;;;;;;4993503;28;20551;-68
2021/10/07 00:05:09;;;;;;;24.05;13.60;;;14.00;99.90;;;;;;4993115;28;20113;-66
2021/10/07 00:07:36;;;;;;;21.13;13.40;;;14.00;99.90;;;;;;4993163;28;20054;-72
2021/10/07 00:10:04;;;;;;;23.15;13.45;;;14.00;99.90;;;;;;4992756;28;20066;-68
2021/10/07 00:12:30;;;;;;;19.40;13.13;;;14.00;99.90;;;;;;4996245;28;20504;-69
2021/10/07 00:14:56;;;;;;;26.50;14.85;;;14.00;99.90;;;;;;4996570;28;20109;-69
2021/10/07 00:17:22;;;;;;;28.92;14.13;;;14.00;99.90;;;;;;4996585;28;20109;-69
2021/10/07 00:19:48;;;;;;;27.05;14.50;;;13.90;99.90;;;;;;4995144;28;20125;-70
2021/10/07 00:22:14;;;;;;;29.90;14.10;;;13.90;99.90;;;;;;4996226;28;20120;-68
2021/10/07 00:24:40;;;;;;;22.00;13.02;;;13.90;99.90;;;;;;4996397;28;20482;-70
2021/10/07 00:27:07;;;;;;;28.73;15.73;;;13.90;99.90;;;;;;4996329;28;20050;-68
2021/10/07 00:29:44;;;;;;;28.67;16.40;;;13.90;99.90;;;;;;4996290;28;20037;-66
2021/10/07 00:32:15;;;;;;;29.08;15.05;;;13.90;99.90;;;;;;4996347;28;20062;-70
2021/10/07 00:40:23;;;;;;;19.05;12.18;;;13.70;99.90;;;;;;4996094;28;20467;-70
2021/10/07 00:42:50;;;;;;;21.48;12.02;;;;;;;;;;4994855;28;20049;-68
2021/10/07 00:45:16;;;;;;;30.35;13.13;;;13.70;99.90;;;;;;4994717;28;20027;-69
2021/10/07 00:47:42;;;;;;;21.63;12.07;;;13.70;99.90;;;;;;4995987;28;20084;-69
2021/10/07 00:50:09;;;;;;;25.30;12.82;;;13.60;99.90;;;;;;4994610;28;20538;-70
2021/10/07 00:52:35;;;;;;;23.58;12.85;;;13.60;99.90;;;;;;4995690;28;20034;-69
2021/10/07 00:55:01;;;;;;;26.45;12.70;;;13.60;99.90;;;;;;4994476;28;20026;-69
2021/10/07 00:57:27;;;;;;;17.02;11.93;;;13.60;99.90;;;;;;4995839;28;20541;-69
2021/10/07 00:59:53;;;;;;;23.10;12.38;;;13.60;99.90;;;;;;4995385;28;20037;-69
2021/10/07 01:02:19;;;;;;;19.60;12.10;;;13.70;99.90;;;;;;4994483;28;20038;-69
2021/10/07 01:04:46;;;;;;;23.05;11.90;;;13.70;99.90;;;;;;4994324;28;20062;-69
2021/10/07 01:07:11;;;;;;;21.05;12.65;;;13.60;99.90;;;;;;4995597;28;20101;-68
2021/10/07 01:09:41;;;;;;;23.58;12.75;;;13.60;99.90;;;;;;4994244;28;20121;-68
2021/10/07 01:12:08;;;;;;;23.80;12.20;;;13.60;99.90;;;;;;4995089;28;20439;-68
2021/10/07 01:14:51;;;;;;;21.70;12.43;;;13.60;99.90;;;;;;4995216;28;20142;-70
2021/10/07 01:17:23;;;;;;;21.98;12.20;;;13.60;99.90;;;;;;4995462;28;20034;-68
2021/10/07 01:19:52;;;;;;;22.08;12.65;;;13.60;99.90;;;;;;4995679;28;20109;-69
2021/10/07 01:22:19;;;;;;;19.13;10.75;;;13.60;99.90;;;;;;4994306;28;20089;-70
2021/10/07 01:24:47;;;;;;;22.17;11.52;;;13.60;99.90;;;;;;4993958;28;20034;-68
2021/10/07 01:27:18;;;;;;;22.77;11.40;;;13.60;99.90;;;;;;4995242;28;20547;-68
2021/10/07 01:29:55;;;;;;;19.80;12.07;;;13.50;99.90;;;;;;4995189;28;20080;-68
2021/10/07 01:32:22;;;;;;;21.77;13.20;;;;;;;;;;4995459;28;20030;-66
2021/10/07 01:34:48;;;;;;;26.25;14.65;;;;;;;;;;4993755;28;20022;-69
2021/10/07 01:37:14;;;;;;;28.98;16.88;;;13.90;99.90;;;;;;4993719;28;20030;-68
2021/10/07 01:39:40;;;;;;;33.38;18.35;;;13.60;99.90;;;;;;4995171;28;20033;-68
2021/10/07 01:42:07;;;;;;;33.55;21.20;;;13.40;99.90;;;;;;4993634;28;20463;-68
2021/10/07 01:44:33;;;;;;;45.47;26.27;;;13.40;99.90;;;;;;4994894;28;20022;-69
2021/10/07 01:46:59;;;;;;;38.40;21.38;;;13.30;99.90;;;;;;4993529;28;20032;-68
2021/10/07 01:49:26;;;;;;;45.60;26.92;;;13.40;99.90;;;;;;4993475;28;20077;-67
2021/10/07 01:51:52;;;;;;;48.88;27.67;;;13.40;99.90;;;;;;4994825;28;20538;-68
2021/10/07 01:54:18;;;;;;;44.25;28.75;;;13.30;99.90;;;;;;4994677;28;20062;-70
2021/10/07 01:56:44;;;;;;;43.00;27.67;;;13.30;99.90;;;;;;4994613;28;20029;-69
2021/10/07 01:59:10;;;;;;;44.70;27.73;;;13.40;99.90;;;;;;4994666;28;20514;-69
2021/10/07 02:01:36;;;;;;;39.28;25.92;;;13.40;99.90;;;;;;4993264;28;20198;-69
2021/10/07 02:04:04;;;;;;;45.08;26.23;;;13.40;99.90;;;;;;4993559;28;20053;-69
2021/10/07 02:06:31;;;;;;;45.20;27.92;;;13.40;99.90;;;;;;4994521;28;20100;-69
2021/10/07 02:08:57;;;;;;;42.15;26.83;;;13.40;99.90;;;;;;4994498;28;20037;-68
2021/10/07 02:11:23;;;;;;;47.33;29.83;;;13.40;99.90;;;;;;4993956;28;20470;-66
2021/10/07 02:13:52;;;;;;;44.35;27.40;;;13.40;99.90;;;;;;4994376;28;20114;-70
2021/10/07 02:16:18;;;;;;;46.15;29.50;;;13.40;99.90;;;;;;4994306;28;20058;-71
2021/10/07 02:18:44;;;;;;;43.92;28.58;;;13.40;99.90;;;;;;4994323;28;20352;-68
2021/10/07 02:21:10;;;;;;;43.55;28.08;;;13.40;99.90;;;;;;4992834;28;20088;-68
2021/10/07 02:23:36;;;;;;;42.15;28.27;;;13.40;99.90;;;;;;4994553;28;20434;-70
2021/10/07 02:26:03;;;;;;;42.42;25.73;;;13.40;99.90;;;;;;4994207;28;20038;-68
2021/10/07 02:28:28;;;;;;;27.92;18.17;;;13.40;99.90;;;;;;4993873;28;20434;-65
2021/10/07 02:30:57;;;;;;;29.50;15.30;;;13.40;99.90;;;;;;4994036;28;20026;-68
2021/10/07 02:33:25;;;;;;;32.88;19.48;;;13.40;99.90;;;;;;4993832;28;20069;-67
2021/10/07 02:35:51;;;;;;;30.83;19.05;;;13.40;99.90;;;;;;4992693;28;20471;-68
2021/10/07 02:38:22;;;;;;;30.60;16.25;;;13.40;99.90;;;;;;4992702;28;20026;-69
2021/10/07 02:40:48;;;;;;;30.45;14.98;;;13.40;99.90;;;;;;4993977;28;20451;-67
2021/10/07 02:43:14;;;;;;;19.05;10.57;;;13.40;99.90;;;;;;4993949;28;20483;-67
2021/10/07 02:45:40;;;;;;;16.25;9.43;;;13.40;99.90;;;;;;4993895;28;20034;-67
2021/10/07 02:48:10;;;;;;;16.70;8.90;;;13.50;99.90;;;;;;4994124;28;20026;-67
2021/10/07 02:50:36;;;;;;;15.23;8.82;;;13.50;99.90;;;;;;4993827;28;20038;-67
2021/10/07 02:53:05;;;;;;;14.63;9.02;;;13.50;99.90;;;;;;4992626;28;20026;-67
2021/10/07 02:55:31;;;;;;;15.77;9.07;;;13.50;99.90;;;;;;4993791;28;20027;-69
2021/10/07 02:57:57;;;;;;;18.13;9.02;;;13.50;99.90;;;;;;4993767;28;20032;-68
2021/10/07 03:00:23;;;;;;;23.25;8.93;;;13.50;99.90;;;;;;4993686;28;20352;-68
2021/10/07 03:02:49;;;;;;;17.40;8.75;;;13.60;99.90;;;;;;4993724;28;20475;-69
2021/10/07 03:05:15;;;;;;;18.55;8.45;;;13.60;99.90;;;;;;4993684;28;20101;-69
2021/10/07 03:07:41;;;;;;;15.55;8.60;;;13.50;99.90;;;;;;4992366;28;20129;-69
2021/10/07 03:10:08;;;;;;;15.60;8.75;;;13.60;99.90;;;;;;4993599;28;20034;-68
2021/10/07 03:12:34;;;;;;;11.98;7.72;;;13.60;99.90;;;;;;4993246;28;20476;-68
2021/10/07 03:15:00;;;;;;;11.88;7.70;;;13.60;99.90;;;;;;4993860;28;20539;-69
2021/10/07 03:17:26;;;;;;;15.20;8.32;;;13.60;99.90;;;;;;4993585;28;20041;-66
2021/10/07 03:19:52;;;;;;;20.58;8.13;;;13.60;99.90;;;;;;4993819;28;20072;-67
2021/10/07 03:22:18;;;;;;;18.65;8.48;;;13.60;99.90;;;;;;4992252;28;20387;-67
2021/10/07 03:24:44;;;;;;;12.93;7.22;;;13.60;99.90;;;;;;4992253;28;20118;-69
2021/10/07 03:27:10;;;;;;;13.93;7.90;;;13.70;99.90;;;;;;4993439;28;20109;-68
2021/10/07 03:29:36;;;;;;;14.32;7.43;;;13.70;99.90;;;;;;4993488;28;20049;-67
2021/10/07 03:32:02;;;;;;;14.05;7.07;;;13.70;99.90;;;;;;4993427;28;20378;-67
2021/10/07 03:34:28;;;;;;;10.63;6.55;;;13.70;99.90;;;;;;4992182;28;20431;-67
2021/10/07 03:36:54;;;;;;;15.73;7.22;;;13.70;99.90;;;;;;4993123;28;20035;-69
2021/10/07 03:39:19;;;;;;;10.85;6.40;;;13.70;99.90;;;;;;4992069;28;20062;-68
2021/10/07 03:41:45;;;;;;;13.00;7.20;;;13.80;99.90;;;;;;4993281;28;20038;-69
2021/10/07 03:44:12;;;;;;;16.20;6.63;;;13.80;99.90;;;;;;4992077;28;20081;-68
2021/10/07 03:46:38;;;;;;;14.35;6.45;;;;;;;;;;4995174;28;20023;-69
2021/10/07 03:49:04;;;;;;;16.67;6.53;;;;;;;;;;4995829;28;20034;-68
2021/10/07 03:51:30;;;;;;;16.55;7.22;;;13.90;99.90;;;;;;4997026;28;20470;-69
2021/10/07 03:53:56;;;;;;;12.40;6.68;;;13.80;99.90;;;;;;4997040;28;20033;-69
2021/10/07 03:56:22;;;;;;;10.63;6.15;;;13.80;99.90;;;;;;4996930;28;20026;-67
2021/10/07 03:58:47;;;;;;;10.85;6.32;;;13.80;99.90;;;;;;4995640;28;20034;-67
2021/10/07 04:01:14;;;;;;;11.82;6.43;;;13.80;99.90;;;;;;4995436;28;20124;-68
2021/10/07 04:03:40;;;;;;;14.23;5.80;;;13.80;99.90;;;;;;4996853;28;20113;-67
2021/10/07 04:06:06;;;;;;;10.45;5.88;;;13.80;99.90;;;;;;4996737;28;20062;-67
2021/10/07 04:08:33;;;;;;;8.70;6.05;;;13.80;99.90;;;;;;4996721;28;20034;-67
2021/10/07 04:11:26;;;;;;;12.75;6.47;;;13.80;99.90;;;;;;4997733;28;20088;-67
2021/10/07 04:13:52;;;;;;;16.30;6.93;;;13.80;99.90;;;;;;4997325;28;20062;-67
2021/10/07 04:16:19;;;;;;;17.17;5.70;;;13.90;99.90;;;;;;4995214;28;20478;-68
2021/10/07 04:18:45;;;;;;;10.50;5.93;;;13.80;99.90;;;;;;4996788;28;20041;-68
2021/10/07 04:21:12;;;;;;;10.18;5.53;;;13.80;99.90;;;;;;4996404;28;20038;-67
2021/10/07 04:23:38;;;;;;;14.20;6.40;;;13.90;99.90;;;;;;4996521;28;20023;-67
2021/10/07 04:26:06;;;;;;;11.82;6.15;;;13.90;99.90;;;;;;4995023;28;20049;-68
2021/10/07 04:28:33;;;;;;;12.73;5.78;;;13.90;99.90;;;;;;4996299;28;20459;-67
2021/10/07 04:31:00;;;;;;;10.07;6.47;;;13.90;99.90;;;;;;4995016;28;20125;-69
2021/10/07 04:33:28;;;;;;;12.35;5.43;;;13.90;99.90;;;;;;4996281;28;20030;-67
2021/10/07 04:35:54;;;;;;;11.18;5.85;;;13.90;99.90;;;;;;4996187;28;20540;-68
2021/10/07 04:38:20;;;;;;;8.90;5.63;;;13.90;99.90;;;;;;4996146;28;20057;-67
2021/10/07 04:40:46;;;;;;;11.38;5.95;;;14.00;99.90;;;;;;4996068;28;20364;-67
2021/10/07 04:43:14;;;;;;;8.95;5.35;;;14.00;99.90;;;;;;4994799;28;20038;-69
2021/10/07 04:45:40;;;;;;;13.00;5.85;;;14.00;99.90;;;;;;4996270;28;20037;-70
2021/10/07 04:48:06;;;;;;;13.50;5.55;;;;;;;;;;4996005;28;20030;-69
2021/10/07 04:50:32;;;;;;;10.77;6.25;;;14.00;99.90;;;;;;4995926;28;20098;-68
2021/10/07 04:52:59;;;;;;;12.18;5.40;;;14.00;99.90;;;;;;4994661;28;20063;-69
2021/10/07 04:55:25;;;;;;;16.00;6.28;;;14.10;99.90;;;;;;4995652;28;20022;-68
2021/10/07 04:57:51;;;;;;;11.93;5.97;;;14.00;99.90;;;;;;4995805;28;20048;-69
2021/10/07 05:00:17;;;;;;;10.93;5.72;;;14.00;99.90;;;;;;4995668;28;20034;-67
2021/10/07 05:02:45;;;;;;;14.80;6.15;;;14.00;99.90;;;;;;4994327;28;20438;-66
2021/10/07 05:05:11;;;;;;;11.30;5.57;;;14.00;99.90;;;;;;4995711;28;20133;-68
2021/10/07 05:07:39;;;;;;;11.73;5.13;;;14.00;99.90;;;;;;4995528;28;20110;-68
2021/10/07 05:10:07;;;;;;;16.30;6.20;;;14.00;99.90;;;;;;4995606;28;20022;-68
2021/10/07 05:12:33;;;;;;;12.00;5.75;;;14.10;99.90;;;;;;4997143;28;20046;-68
2021/10/07 05:14:59;;;;;;;10.95;5.85;;;14.20;99.90;;;;;;5015018;28;20033;-68
2021/10/07 05:17:25;;;;;;;12.55;6.40;;;14.10;99.90;;;;;;4997368;28;20064;-69
2021/10/07 05:19:51;;;;;;;8.90;6.10;;;14.10;99.90;;;;;;5014554;28;20037;-69
2021/10/07 05:22:17;;;;;;;11.75;5.90;;;14.10;99.90;;;;;;5014825;28;20026;-69
2021/10/07 05:24:43;;;;;;;12.57;5.68;;;14.10;99.90;;;;;;4997178;28;20053;-68
2021/10/07 05:27:09;;;;;;;11.57;6.35;;;14.20;99.90;;;;;;5014789;28;20471;-68
2021/10/07 05:29:35;;;;;;;12.52;5.88;;;14.10;99.90;;;;;;5014683;28;20469;-69
2021/10/07 05:32:01;;;;;;;11.15;5.85;;;14.10;99.90;;;;;;5014636;28;20128;-68
2021/10/07 05:34:27;;;;;;;12.23;5.85;;;14.10;99.90;;;;;;5014686;28;20036;-67
2021/10/07 05:36:52;;;;;;;12.57;5.75;;;14.20;99.90;;;;;;4996849;28;20025;-65
2021/10/07 05:39:18;;;;;;;9.68;5.85;;;14.20;99.90;;;;;;5014418;28;20030;-68
2021/10/07 05:41:46;;;;;;;19.30;6.40;;;14.20;99.90;;;;;;4996948;28;20057;-66
2021/10/07 05:44:12;;;;;;;12.88;7.07;;;14.20;99.90;;;;;;5014568;28;20397;-66
2021/10/07 05:46:38;;;;;;;12.80;6.28;;;14.30;99.90;;;;;;5014274;28;20053;-65
2021/10/07 05:49:05;;;;;;;11.05;5.85;;;14.30;99.90;;;;;;5014348;28;20086;-69
2021/10/07 05:51:32;;;;;;;15.35;6.78;;;14.20;99.90;;;;;;5014002;28;20452;-66
2021/10/07 05:53:58;;;;;;;12.15;5.90;;;14.40;99.90;;;;;;5014411;28;20033;-67
2021/10/07 05:56:25;;;;;;;10.68;6.25;;;14.40;99.90;;;;;;5014166;28;20463;-69
2021/10/07 05:58:50;;;;;;;15.70;5.38;;;14.50;99.90;;;;;;5014062;28;20034;-65
2021/10/07 06:02:06;;;;;;;13.68;6.60;;;14.30;99.90;;;;;;5014145;28;20030;-67
2021/10/07 06:04:32;;;;;;;10.40;6.55;;;14.30;99.90;;;;;;4996470;28;20036;-66
2021/10/07 06:06:59;;;;;;;10.15;6.03;;;14.30;99.90;;;;;;5013844;28;20105;-66
2021/10/07 06:09:25;;;;;;;11.63;6.28;;;14.30;99.90;;;;;;4995926;28;20309;-66
2021/10/07 06:11:51;;;;;;;12.68;5.95;;;14.30;99.90;;;;;;5011356;28;20084;-67
2021/10/07 06:14:17;;;;;;;12.15;6.32;;;14.30;99.90;;;;;;4994172;28;20030;-65
2021/10/07 06:16:43;;;;;;;13.30;5.72;;;14.30;99.90;;;;;;4994382;28;20463;-66
2021/10/07 06:19:12;;;;;;;8.02;5.68;;;14.30;99.90;;;;;;4994213;28;20065;-66
2021/10/07 06:21:38;;;;;;;7.63;5.75;;;14.30;99.90;;;;;;4994117;28;20038;-66
2021/10/07 06:24:05;;;;;;;10.68;5.95;;;14.40;99.90;;;;;;4994185;28;20032;-67
2021/10/07 06:26:31;;;;;;;10.75;5.28;;;14.40;99.90;;;;;;4992809;28;20072;-68
2021/10/07 06:28:56;;;;;;;16.70;6.53;;;14.40;99.90;;;;;;4994112;28;20416;-67
2021/10/07 06:31:22;;;;;;;13.10;5.75;;;14.40;99.90;;;;;;4992700;28;20037;-67
2021/10/07 06:33:48;;;;;;;13.88;5.57;;;14.40;99.90;;;;;;4993911;28;20383;-68
2021/10/07 06:36:15;;;;;;;12.48;5.75;;;;;;;;;;4992602;28;20077;-67
2021/10/07 06:38:41;;;;;;;11.10;5.68;;;14.60;99.90;;;;;;4992289;28;20026;-69
2021/10/07 06:41:07;;;;;;;12.63;6.13;;;14.60;99.90;;;;;;4993560;28;20466;-67
2021/10/07 06:43:33;;;;;;;13.38;6.07;;;14.50;99.90;;;;;;4992538;28;20030;-66
2021/10/07 06:45:59;;;;;;;14.70;6.30;;;14.50;99.90;;;;;;4993938;28;20081;-68
2021/10/07 06:48:24;;;;;;;12.82;5.78;;;14.50;99.90;;;;;;4992384;28;20034;-68
2021/10/07 06:50:50;;;;;;;11.93;5.68;;;14.60;99.90;;;;;;4992481;28;20033;-66
2021/10/07 06:53:17;;;;;;;13.65;7.30;;;14.60;99.90;;;;;;4993786;28;20419;-67
2021/10/07 06:55:44;;;;;;;14.50;6.22;;;14.60;99.90;;;;;;4993771;28;20367;-68
2021/10/07 06:58:10;;;;;;;10.60;5.78;;;14.60;99.90;;;;;;4993633;28;20610;-67
2021/10/07 07:00:37;;;;;;;14.27;7.30;;;14.60;99.90;;;;;;4992222;28;20467;-66
2021/10/07 07:03:05;;;;;;;12.32;5.63;;;14.70;99.90;;;;;;4993515;28;20030;-67
2021/10/07 07:05:31;;;;;;;14.48;6.28;;;14.80;99.90;;;;;;4993503;28;20491;-70
2021/10/07 07:07:57;;;;;;;11.05;7.07;;;14.80;99.90;;;;;;4993607;28;20054;-67
2021/10/07 07:10:23;;;;;;;10.95;6.90;;;14.80;99.90;;;;;;4993600;28;20033;-69
2021/10/07 07:12:50;;;;;;;12.95;6.63;;;14.80;99.90;;;;;;4993342;28;20133;-67
2021/10/07 07:15:17;;;;;;;11.27;6.50;;;14.90;99.90;;;;;;4993607;28;20053;-67
2021/10/07 07:17:43;;;;;;;18.63;6.53;;;14.90;99.90;;;;;;4993558;28;20023;-68
2021/10/07 07:20:10;;;;;;;24.83;7.78;;;15.00;99.90;;;;;;4994976;28;20038;-67
2021/10/07 07:22:37;;;;;;;11.75;6.60;;;15.00;99.90;;;;;;4996123;28;20467;-67
2021/10/07 07:25:05;;;;;;;16.45;7.55;;;14.90;99.90;;;;;;4996181;28;20431;-68
2021/10/07 07:27:31;;;;;;;9.95;6.38;;;15.00;99.90;;;;;;4997470;28;20023;-69
2021/10/07 07:29:57;;;;;;;11.48;6.65;;;15.10;99.90;;;;;;4997678;28;20481;-68
2021/10/07 07:32:23;;;;;;;13.13;6.53;;;15.00;99.90;;;;;;4996041;28;20026;-69
2021/10/07 07:34:49;;;;;;;13.27;6.85;;;15.10;99.90;;;;;;4996905;28;20430;-69
2021/10/07 07:37:15;;;;;;;12.35;6.53;;;15.10;99.90;;;;;;4997154;28;20038;-69
2021/10/07 07:39:41;;;;;;;12.45;6.05;;;15.10;99.90;;;;;;4995367;28;20030;-66
2021/10/07 07:42:07;;;;;;;13.45;6.80;;;15.20;99.90;;;;;;4996874;28;20038;-66
2021/10/07 07:44:33;;;;;;;11.55;5.85;;;15.20;99.90;;;;;;4996700;28;20030;-65
2021/10/07 07:46:59;;;;;;;11.38;6.38;;;15.30;99.90;;;;;;4996984;28;20463;-65
2021/10/07 07:49:25;;;;;;;17.52;6.80;;;15.40;99.90;;;;;;4997049;28;20030;-68
2021/10/07 07:51:51;;;;;;;10.32;6.25;;;15.40;99.90;;;;;;4996829;28;20038;-68
2021/10/07 07:54:17;;;;;;;9.57;5.65;;;15.50;99.90;;;;;;4996479;28;20096;-67
2021/10/07 07:56:43;;;;;;;11.48;5.70;;;15.50;99.90;;;;;;4996859;28;20026;-66
2021/10/07 07:59:09;;;;;;;9.73;5.63;;;15.60;99.90;;;;;;4996115;28;20031;-68
2021/10/07 08:01:38;;;;;;;16.83;6.55;;;15.70;99.90;;;;;;4994983;28;20038;-67
2021/10/07 08:04:06;;;;;;;16.63;6.00;;;15.70;99.90;;;;;;4994395;28;20038;-68
2021/10/07 08:06:34;;;;;;;9.70;5.70;;;15.70;99.90;;;;;;4996599;28;20030;-69
2021/10/07 08:09:00;;;;;;;12.25;6.10;;;15.80;99.90;;;;;;4996420;28;20026;-67
2021/10/07 08:11:26;;;;;;;10.40;5.18;;;15.70;99.90;;;;;;4995143;28;20463;-66
2021/10/07 08:13:52;;;;;;;12.65;6.95;;;15.80;99.90;;;;;;4996558;28;20050;-67
2021/10/07 08:16:18;;;;;;;11.32;4.72;;;15.70;99.90;;;;;;4996700;28;20119;-67
2021/10/07 08:18:44;;;;;;;12.02;5.95;;;15.70;99.90;;;;;;4995067;28;20160;-69
2021/10/07 08:21:11;;;;;;;17.33;5.18;;;15.70;99.90;;;;;;4996236;28;20041;-69
2021/10/07 08:23:37;;;;;;;7.97;5.13;;;15.70;99.90;;;;;;4994957;28;20375;-67
2021/10/07 08:26:03;;;;;;;7.70;5.43;;;15.70;99.90;;;;;;4996148;28;20052;-69
2021/10/07 08:28:29;;;;;;;7.45;5.47;;;15.70;99.90;;;;;;4996256;28;20092;-66
2021/10/07 08:30:55;;;;;;;12.95;5.68;;;15.80;99.70;;;;;;4995512;28;20467;-69
2021/10/07 08:33:21;;;;;;;17.58;6.13;;;15.80;99.60;;;;;;4996074;28;20062;-68
2021/10/07 08:35:50;;;;;;;11.52;5.57;;;15.90;99.90;;;;;;4994754;28;20370;-70
2021/10/07 08:38:17;;;;;;;12.43;5.63;;;15.90;99.70;;;;;;4995657;28;20422;-69
2021/10/07 08:40:43;;;;;;;12.02;5.40;;;16.00;99.30;;;;;;4995729;28;20395;-67
2021/10/07 08:43:09;;;;;;;13.13;5.22;;;16.00;98.20;;;;;;4994679;28;20372;-67
2021/10/07 08:45:35;;;;;;;15.82;7.00;;;16.00;98.20;;;;;;4995980;28;20081;-68
2021/10/07 08:48:01;;;;;;;13.57;5.28;;;16.00;97.70;;;;;;4994628;28;20026;-70
2021/10/07 08:50:27;;;;;;;16.70;5.20;;;16.10;97.70;;;;;;4995678;28;20035;-67
2021/10/07 08:52:53;;;;;;;9.75;5.35;;;;;;;;;;4994328;28;20394;-69
2021/10/07 08:55:20;;;;;;;13.18;5.53;;;;;;;;;;4995791;28;20026;-67
2021/10/07 08:57:46;;;;;;;8.70;4.72;;;;;;;;;;4995668;28;20045;-67
2021/10/07 09:00:13;;;;;;;13.32;5.35;;;;;;;;;;4994248;28;20391;-67
2021/10/07 09:02:40;;;;;;;11.85;4.38;;;16.00;97.20;;;;;;4994334;28;20026;-68
2021/10/07 09:05:19;;;;;;;11.48;5.32;;;16.30;96.70;;;;;;4995581;28;20116;-69
2021/10/07 09:08:04;;;;;;;10.98;4.82;;;16.30;96.60;;;;;;4995573;28;20022;-68
2021/10/07 09:10:55;;;;;;;13.48;4.80;;;;;;;;;;4995500;28;20034;-68
2021/10/07 09:13:25;;;;;;;10.82;4.70;;;;;;;;;;4995029;28;20103;-68
2021/10/07 09:15:56;;;;;;;8.52;4.75;;;;;;;;;;4995673;28;20451;-67
2021/10/07 09:18:24;;;;;;;10.35;4.30;;;16.40;95.30;;;;;;4995231;28;20030;-68
2021/10/07 09:20:52;;;;;;;7.22;4.20;;;16.60;95.20;;;;;;4995131;28;20118;-69
2021/10/07 09:23:33;;;;;;;14.38;4.93;;;16.50;93.80;;;;;;4994876;28;20483;-68
2021/10/07 09:26:01;;;;;;;7.53;4.20;;;;;;;;;;4995236;28;20033;-69
2021/10/07 09:28:29;;;;;;;10.45;5.03;;;;;;;;;;4993752;28;20038;-69
2021/10/07 09:30:57;;;;;;;12.07;4.90;;;;;;;;;;4994806;28;20505;-68
2021/10/07 09:33:37;;;;;;;10.43;4.10;;;16.50;94.80;;;;;;4995071;28;20030;-68
2021/10/07 09:36:14;;;;;;;9.98;4.45;;;;;;;;;;4994961;28;20145;-67
2021/10/07 09:38:40;;;;;;;14.13;4.45;;;;;;;;;;4994936;28;20030;-66
2021/10/07 09:41:11;;;;;;;10.10;4.38;;;16.50;93.40;;;;;;4993587;28;20037;-67
2021/10/07 09:43:45;;;;;;;11.35;4.22;;;16.20;94.00;;;;;;4991605;28;20116;-69
2021/10/07 09:46:11;;;;;;;11.95;4.10;;;16.10;93.70;;;;;;4994932;28;20113;-69
2021/10/07 09:48:39;;;;;;;11.07;4.88;;;16.00;94.80;;;;;;4994868;28;20110;-69
2021/10/07 09:51:15;;;;;;;12.80;4.72;;;15.90;94.20;;;;;;4994789;28;20523;-68
2021/10/07 09:53:45;;;;;;;9.68;4.50;;;15.90;94.20;;;;;;4994820;28;20030;-68
2021/10/07 09:56:25;;;;;;;8.98;4.40;;;15.80;95.40;;;;;;4994688;28;20041;-69
2021/10/07 09:58:53;;;;;;;11.00;4.25;;;15.90;95.60;;;;;;4993200;28;20022;-68
2021/10/07 10:01:19;;;;;;;11.13;4.65;;;15.80;95.10;;;;;;4994231;28;20853;-69
2021/10/07 10:03:46;;;;;;;6.97;4.03;;;15.70;95.20;;;;;;4994557;28;20070;-70
2021/10/07 10:06:12;;;;;;;10.43;4.28;;;15.80;95.40;;;;;;4992943;28;20026;-69
2021/10/07 10:08:39;;;;;;;10.50;4.43;;;15.70;94.80;;;;;;4992836;28;20026;-67
2021/10/07 10:11:05;;;;;;;11.15;4.70;;;15.60;95.10;;;;;;4991739;28;20030;-68
2021/10/07 10:13:33;;;;;;;7.68;4.40;;;15.70;95.60;;;;;;4993707;28;20122;-68
2021/10/07 10:15:59;;;;;;;16.02;5.05;;;15.60;95.20;;;;;;4992494;28;20084;-68
2021/10/07 10:18:26;;;;;;;12.07;5.10;;;15.60;95.00;;;;;;4989360;28;20034;-66
2021/10/07 10:20:53;;;;;;;11.75;4.60;;;15.60;95.70;;;;;;4991383;28;20057;-66
2021/10/07 10:23:22;;;;;;;12.23;4.32;;;15.60;95.70;;;;;;4993604;28;20109;-65
2021/10/07 10:25:50;;;;;;;9.25;4.07;;;15.50;94.80;;;;;;4993812;28;20022;-68
2021/10/07 10:28:16;;;;;;;11.32;3.92;;;15.50;95.80;;;;;;4993851;28;20026;-67
2021/10/07 10:30:47;;;;;;;14.18;4.00;;;15.50;94.80;;;;;;4993978;28;20034;-68
2021/10/07 10:33:31;;;;;;;12.87;4.27;;;15.50;95.30;;;;;;4993976;28;20530;-68
2021/10/07 10:35:57;;;;;;;9.75;4.90;;;15.50;94.60;;;;;;4993756;28;20601;-68
2021/10/07 10:38:25;;;;;;;12.43;4.43;;;15.50;95.30;;;;;;4993750;28;20026;-70
2021/10/07 10:40:51;;;;;;;9.13;4.38;;;15.50;95.70;;;;;;4993314;28;20677;-68
2021/10/07 10:43:17;;;;;;;10.10;4.50;;;15.50;95.90;;;;;;4992472;28;20037;-68
2021/10/07 10:46:08;;;;;;;14.85;4.93;;;15.60;95.70;;;;;;4993653;28;20456;-68
2021/10/07 10:48:49;;;;;;;18.27;4.55;;;15.60;95.70;;;;;;4992108;28;20022;-67
2021/10/07 10:51:16;;;;;;;11.15;4.10;;;15.70;94.80;;;;;;4990956;28;20475;-67
2021/10/07 10:54:00;;;;;;;9.73;5.03;;;15.70;94.80;;;;;;4991671;28;20030;-69
2021/10/07 10:56:37;;;;;;;13.18;4.80;;;15.70;94.20;;;;;;4993397;28;20072;-63
2021/10/07 10:59:24;;;;;;;11.57;5.00;;;15.80;94.20;;;;;;4993215;28;20168;-68
2021/10/07 11:02:08;;;;;;;10.38;4.25;;;;;;;;;;4993549;28;20039;-69
2021/10/07 11:04:43;;;;;;;10.73;4.20;;;15.90;94.60;;;;;;5011734;28;20109;-66
2021/10/07 11:07:27;;;;;;;11.38;4.45;;;15.90;93.60;;;;;;5013232;28;20112;-70
2021/10/07 11:10:01;;;;;;;8.73;3.97;;;16.00;93.80;;;;;;5009945;28;20072;-68
2021/10/07 11:12:50;;;;;;;13.48;4.13;;;16.10;93.90;;;;;;5010843;28;20050;-67
2021/10/07 11:15:17;;;;;;;14.32;4.53;;;;;;;;;;5012473;28;20101;-67
2021/10/07 11:17:45;;;;;;;10.60;3.65;;;16.20;93.80;;;;;;5012663;28;20022;-67
2021/10/07 11:20:34;;;;;;;10.43;4.22;;;16.30;93.80;;;;;;5012997;28;20109;-69
2021/10/07 11:23:12;;;;;;;13.23;4.32;;;16.30;93.40;;;;;;5013156;28;20058;-66
2021/10/07 11:25:50;;;;;;;10.95;3.75;;;16.30;93.40;;;;;;5013082;28;20520;-67
2021/10/07 11:28:23;;;;;;;9.88;3.95;;;16.30;93.30;;;;;;5011727;28;20497;-67
2021/10/07 11:30:49;;;;;;;11.15;4.03;;;16.30;93.00;;;;;;5013263;28;20042;-67
2021/10/07 11:33:15;;;;;;;9.10;3.75;;;16.30;92.90;;;;;;5012992;28;20117;-68
2021/10/07 11:35:41;;;;;;;11.43;3.95;;;;;;;;;;5012990;28;20105;-67
2021/10/07 11:38:09;;;;;;;18.60;5.05;;;;;;;;;;5013301;28;20076;-70
2021/10/07 11:40:47;;;;;;;14.25;4.72;;;;;;;;;;5012811;28;20053;-72
2021/10/07 11:43:19;;;;;;;13.35;3.90;;;;;;;;;;5011577;28;20026;-69
2021/10/07 11:45:47;;;;;;;8.45;3.47;;;;;;;;;;5011549;28;20026;-71
2021/10/07 11:48:14;;;;;;;11.73;3.42;;;16.30;92.30;;;;;;5011589;28;20022;-70
2021/10/07 11:50:48;;;;;;;9.85;3.50;;;16.40;92.00;;;;;;5012845;28;20037;-67
2021/10/07 11:53:26;;;;;;;10.05;3.17;;;16.40;93.10;;;;;;5012736;28;20084;-68
2021/10/07 11:55:52;;;;;;;15.82;3.67;;;16.40;91.50;;;;;;5012889;28;20059;-71
2021/10/07 11:58:18;;;;;;;12.00;3.20;;;16.40;92.80;;;;;;5012515;28;20101;-70
2021/10/07 12:00:52;;;;;;;12.52;3.50;;;16.40;91.50;;;;;;5012417;28;20120;-71
2021/10/07 12:03:38;;;;;;;16.45;4.15;;;16.40;92.70;;;;;;5012713;28;20029;-71
2021/10/07 12:06:12;;;;;;;12.60;3.35;;;;;;;;;;5013631;28;20026;-68
2021/10/07 12:08:39;;;;;;;17.38;4.25;;;;;;;;;;5016288;28;20072;-69
2021/10/07 12:11:07;;;;;;;15.48;4.43;;;;;;;;;;5016022;28;20030;-71
2021/10/07 12:13:35;;;;;;;12.82;3.47;;;;;;;;;;5014346;28;20046;-68
2021/10/07 12:16:07;;;;;;;8.75;3.58;;;16.40;92.60;;;;;;5016105;28;20038;-67
2021/10/07 12:18:36;;;;;;;11.60;4.57;;;16.20;92.90;;;;;;5016150;28;20038;-70
2021/10/07 12:21:12;;;;;;;19.20;4.47;;;16.20;93.10;;;;;;5015914;28;20057;-70
2021/10/07 12:23:58;;;;;;;13.90;3.85;;;;;;;;;;5016107;28;20104;-70
2021/10/07 12:26:25;;;;;;;16.33;3.95;;;;;;;;;;5015654;28;20352;-69
2021/10/07 12:28:52;;;;;;;13.00;4.05;;;;;;;;;;5015951;28;20026;-69
2021/10/07 12:31:25;;;;;;;14.15;5.10;;;;;;;;;;5015802;28;20065;-70
2021/10/07 12:33:59;;;;;;;17.42;4.68;;;;;;;;;;5014601;28;20053;-70
2021/10/07 12:36:33;;;;;;;23.83;4.57;;;16.20;93.30;;;;;;5015810;28;20056;-70
2021/10/07 12:38:59;;;;;;;15.10;5.07;;;16.10;94.10;;;;;;5015814;28;20026;-68
2021/10/07 12:41:33;;;;;;;16.45;4.22;;;16.00;93.80;;;;;;5015637;28;20038;-70
2021/10/07 12:44:00;;;;;;;19.45;6.03;;;15.90;95.40;;;;;;5015621;28;20482;-68
2021/10/07 12:46:26;;;;;;;18.35;5.05;;;15.80;96.30;;;;;;5015615;28;20030;-69
2021/10/07 12:48:59;;;;;;;20.30;5.28;;;15.80;96.10;;;;;;5015635;28;20061;-68
2021/10/07 12:51:33;;;;;;;16.27;5.53;;;15.80;97.00;;;;;;5015467;28;20513;-68
2021/10/07 12:53:59;;;;;;;20.13;5.70;;;15.70;96.80;;;;;;5015700;28;20493;-68
2021/10/07 12:56:30;;;;;;;21.10;5.93;;;15.70;97.20;;;;;;5015673;28;20045;-69
2021/10/07 12:59:02;;;;;;;16.87;4.30;;;15.70;96.80;;;;;;5015407;28;20041;-67